createdAt,value
2023-03-29T05:03:05.493Z,500.00
2023-03-29T05:04:06.511Z,500.00
2023-03-29T05:05:05.474Z,500.00
2023-03-29T05:06:06.514Z,500.00
2023-03-29T05:07:06.558Z,500.00
2023-03-29T05:08:06.567Z,500.00
2023-03-29T05:09:06.569Z,400.00
2023-03-29T05:10:06.593Z,400.00
2023-03-29T05:11:06.639Z,400.00
2023-03-29T05:12:06.692Z,400.00
2023-03-29T05:16:05.877Z,400.00
2023-03-29T05:17:06.876Z,400.00
2023-03-29T05:18:06.953Z,400.00
2023-03-29T05:19:06.954Z,400.00
2023-03-29T05:25:06.078Z,469.00
2023-03-29T05:26:07.075Z,502.00
2023-03-29T05:27:07.096Z,500.00
2023-03-29T05:30:06.133Z,505.00
2023-03-29T05:31:06.411Z,508.00
2023-03-29T05:32:07.343Z,500.00
2023-03-29T05:33:07.207Z,500.00
2023-03-29T05:34:07.195Z,500.00
2023-03-29T05:35:07.244Z,499.00
2023-03-29T05:36:07.261Z,500.00
2023-03-29T05:37:07.255Z,500.00
2023-03-29T05:38:07.281Z,506.00
2023-03-29T05:39:07.318Z,500.00
2023-03-29T05:40:07.307Z,500.00
2023-03-29T05:44:06.369Z,506.00
2023-03-29T05:45:07.377Z,503.00
2023-03-29T05:46:07.473Z,501.00
2023-03-29T05:47:07.417Z,500.00
2023-03-29T05:48:07.479Z,506.00
2023-03-29T05:52:06.472Z,512.00
2023-03-29T05:53:06.484Z,505.00
2023-03-29T05:54:07.498Z,505.00
2023-03-29T05:55:07.522Z,503.00
2023-03-29T05:56:07.543Z,507.00
2023-03-29T05:57:07.891Z,503.00
2023-03-29T06:01:06.588Z,508.00
2023-03-29T06:02:07.895Z,505.00
2023-03-29T06:03:18.028Z,508.00
2023-03-29T06:07:06.615Z,497.00
2023-03-29T06:08:08.310Z,495.00
2023-03-29T06:09:07.577Z,502.00
2023-03-29T06:10:07.574Z,502.00
2023-03-29T06:11:07.934Z,500.00
2023-03-29T06:15:06.523Z,502.00
2023-03-29T06:16:07.548Z,510.00
2023-03-29T06:17:07.558Z,507.00
2023-03-29T06:20:06.530Z,512.00
2023-03-29T06:21:07.491Z,510.00
2023-03-29T06:22:07.537Z,510.00
2023-03-29T06:23:07.502Z,508.00
2023-03-29T06:24:07.461Z,514.00
2023-03-29T06:25:07.466Z,508.00
2023-03-29T06:28:06.466Z,522.00
2023-03-29T06:31:06.738Z,518.00
2023-03-29T06:32:07.435Z,520.00
2023-03-29T06:35:06.409Z,527.00
2023-03-29T06:36:07.439Z,526.00
2023-03-29T06:38:06.376Z,529.00
2023-03-29T06:39:07.406Z,535.00
2023-03-29T06:40:07.388Z,531.00
2023-03-29T06:41:07.421Z,532.00
2023-03-29T06:42:20.016Z,538.00
2023-03-29T06:45:06.336Z,543.00
2023-03-29T06:46:07.360Z,545.00
2023-03-29T06:47:07.312Z,558.00
2023-03-29T06:48:06.377Z,554.00
2023-03-29T06:49:07.309Z,553.00
2023-03-29T06:51:06.273Z,552.00
2023-03-29T06:52:07.345Z,559.00
2023-03-29T06:53:07.271Z,561.00
2023-03-29T06:59:06.227Z,568.00
2023-03-29T07:00:07.224Z,574.00
2023-03-29T07:01:07.251Z,577.00
2023-03-29T07:04:06.217Z,577.00
2023-03-29T07:05:06.180Z,571.00
2023-03-29T07:06:06.186Z,584.00
2023-03-29T07:07:07.165Z,582.00
2023-03-29T07:09:06.154Z,586.00
2023-03-29T07:10:07.152Z,586.00
2023-03-29T07:11:07.183Z,589.00
2023-03-29T07:12:07.119Z,592.00
2023-03-29T07:13:07.126Z,589.00
2023-03-29T07:14:07.150Z,594.00
2023-03-29T07:18:06.167Z,605.00
2023-03-29T07:19:06.152Z,608.00
2023-03-29T07:20:07.091Z,605.00
2023-03-29T07:21:07.129Z,609.00
2023-03-29T07:23:06.040Z,620.00
2023-03-29T07:24:07.050Z,618.00
2023-03-29T07:26:06.034Z,627.00
2023-03-29T07:27:07.038Z,628.00
2023-03-29T07:28:07.043Z,629.00
2023-03-29T07:29:07.105Z,629.00
2023-03-29T07:30:07.130Z,631.00
2023-03-29T07:31:07.210Z,633.00
2023-03-29T07:32:07.250Z,638.00
2023-03-29T07:33:07.396Z,643.00
2023-03-29T07:34:06.335Z,641.00
2023-03-29T07:35:07.369Z,644.00
2023-03-29T07:36:06.492Z,650.00
2023-03-29T07:37:07.473Z,655.00
2023-03-29T07:38:07.487Z,659.00
2023-03-29T07:39:07.524Z,654.00
2023-03-29T07:40:07.581Z,661.00
2023-03-29T07:41:07.627Z,654.00
2023-03-29T07:42:07.684Z,656.00
2023-03-29T07:43:07.757Z,662.00
2023-03-29T07:44:07.735Z,664.00
2023-03-29T07:45:07.764Z,668.00
2023-03-29T07:46:07.802Z,665.00
2023-03-29T07:48:06.933Z,669.00
2023-03-29T07:49:07.813Z,673.00
2023-03-29T07:50:07.844Z,685.00
2023-03-29T07:51:07.860Z,692.00
2023-03-29T07:52:08.363Z,678.00
2023-03-29T07:54:06.854Z,690.00
2023-03-29T07:55:07.874Z,699.00
2023-03-29T07:58:06.871Z,726.00
2023-03-29T07:59:06.922Z,757.00
2023-03-29T08:00:07.956Z,760.00
2023-03-29T08:01:07.329Z,752.00
2023-03-29T08:02:08.003Z,760.00
2023-03-29T08:03:07.160Z,754.00
2023-03-29T08:04:08.306Z,752.00
2023-03-29T08:05:08.240Z,813.00
2023-03-29T08:06:08.226Z,809.00
2023-03-29T08:07:08.245Z,813.00
2023-03-29T08:08:08.324Z,817.00
2023-03-29T08:09:08.357Z,798.00
2023-03-29T08:10:08.430Z,812.00
2023-03-29T08:12:07.516Z,811.00
2023-03-29T08:13:08.590Z,801.00
2023-03-29T08:14:08.644Z,810.00
2023-03-29T08:15:08.690Z,805.00
2023-03-29T08:16:08.728Z,824.00
2023-03-29T08:17:08.835Z,820.00
2023-03-29T08:18:08.871Z,823.00
2023-03-29T08:19:08.900Z,833.00
2023-03-29T08:20:08.963Z,832.00
2023-03-29T08:21:09.030Z,840.00
2023-03-29T08:22:09.047Z,755.00
2023-03-29T08:23:09.064Z,822.00
2023-03-29T08:26:08.875Z,765.00
2023-03-29T08:27:09.097Z,604.00
2023-03-29T08:29:08.113Z,629.00
2023-03-29T08:30:09.149Z,632.00
2023-03-29T08:32:08.103Z,623.00
2023-03-29T08:33:09.153Z,620.00
2023-03-29T08:36:08.202Z,625.00
2023-03-29T08:37:09.184Z,586.00
2023-03-29T08:39:08.201Z,626.00
2023-03-29T08:40:09.235Z,558.00
2023-03-29T08:41:09.239Z,482.00
2023-03-29T08:42:09.243Z,539.00
2023-03-29T08:43:09.367Z,802.00
2023-03-29T08:44:09.294Z,610.00
2023-03-29T08:45:09.321Z,707.00
2023-03-29T08:46:09.423Z,759.00
2023-03-29T08:47:09.351Z,647.00
2023-03-29T08:48:09.359Z,574.00
2023-03-29T08:49:09.352Z,689.00
2023-03-29T08:50:09.351Z,589.00
2023-03-29T08:51:10.175Z,649.00
2023-03-29T08:52:09.405Z,723.00
2023-03-29T08:53:09.464Z,565.00
2023-03-29T08:54:09.461Z,593.00
2023-03-29T08:55:09.481Z,649.00
2023-03-29T08:56:09.507Z,655.00
2023-03-29T08:57:09.538Z,468.00
2023-03-29T08:59:08.589Z,693.00
2023-03-29T09:00:09.624Z,717.00
2023-03-29T09:01:09.648Z,713.00
2023-03-29T09:02:09.807Z,716.00
2023-03-29T09:03:09.801Z,710.00
2023-03-29T09:04:09.919Z,738.00
2023-03-29T09:07:08.780Z,855.00
2023-03-29T09:08:09.833Z,850.00
2023-03-29T09:09:08.895Z,823.00
2023-03-29T09:10:08.947Z,815.00
2023-03-29T09:11:09.979Z,849.00
2023-03-29T09:12:09.995Z,871.00
2023-03-29T09:13:10.042Z,865.00
2023-03-29T09:14:09.041Z,882.00
2023-03-29T09:15:10.075Z,911.00
2023-03-29T09:16:10.128Z,930.00
2023-03-29T09:21:09.090Z,990.00
2023-03-29T09:22:09.146Z,1002.00
2023-03-29T09:23:09.215Z,998.00
2023-03-29T09:24:10.258Z,1020.00
2023-03-29T09:25:09.328Z,1034.00
2023-03-29T09:26:10.377Z,1061.00
2023-03-29T09:27:10.425Z,1068.00
2023-03-29T09:28:10.498Z,1100.00
2023-03-29T09:29:10.547Z,1099.00
2023-03-29T09:30:10.571Z,1099.00
2023-03-29T09:31:10.648Z,1106.00
2023-03-29T09:32:10.664Z,1108.00
2023-03-29T09:33:10.783Z,1122.00
2023-03-29T09:37:09.938Z,1162.00
2023-03-29T09:38:10.994Z,1172.00
2023-03-29T09:39:11.023Z,1190.00
2023-03-29T09:40:11.044Z,1182.00
2023-03-29T09:41:11.092Z,1202.00
2023-03-29T09:43:10.095Z,1189.00
2023-03-29T09:44:20.802Z,1182.00
2023-03-29T09:45:11.118Z,1183.00
2023-03-29T09:47:10.116Z,1173.00
2023-03-29T09:48:10.470Z,1162.00
2023-03-29T09:49:11.153Z,1127.00
2023-03-29T09:50:16.826Z,1138.00
2023-03-29T09:51:11.080Z,1139.00
2023-03-29T09:54:10.077Z,1102.00
2023-03-29T09:57:10.086Z,1068.00
2023-03-29T09:58:11.027Z,1055.00
2023-03-29T09:59:10.031Z,1047.00
2023-03-29T10:00:11.017Z,1034.00
2023-03-29T10:01:11.042Z,1028.00
2023-03-29T10:02:11.149Z,1027.00
2023-03-29T10:06:10.311Z,1002.00
2023-03-29T10:07:10.348Z,998.00
2023-03-29T10:08:11.416Z,993.00
2023-03-29T10:09:11.450Z,1003.00
2023-03-29T10:10:11.523Z,985.00
2023-03-29T10:11:11.581Z,984.00
2023-03-29T10:12:11.633Z,968.00
2023-03-29T10:13:11.728Z,968.00
2023-03-29T10:14:11.741Z,964.00
2023-03-29T10:15:19.635Z,966.00
2023-03-29T10:16:11.828Z,967.00
2023-03-29T10:18:10.826Z,968.00
2023-03-29T10:19:11.748Z,964.00
2023-03-29T10:20:11.751Z,952.00
2023-03-29T10:21:11.768Z,954.00
2023-03-29T10:22:10.731Z,951.00
2023-03-29T10:24:10.722Z,946.00
2023-03-29T10:25:11.701Z,945.00
2023-03-29T10:26:11.715Z,938.00
2023-03-29T10:30:10.665Z,937.00
2023-03-29T10:31:11.668Z,916.00
2023-03-29T10:32:11.675Z,930.00
2023-03-29T10:33:11.688Z,924.00
2023-03-29T10:34:11.663Z,935.00
2023-03-29T10:35:11.629Z,927.00
2023-03-29T10:38:10.623Z,919.00
2023-03-29T10:39:11.615Z,932.00
2023-03-29T10:40:11.605Z,908.00
2023-03-29T10:41:11.652Z,927.00
2023-03-29T10:43:10.760Z,919.00
2023-03-29T10:44:11.933Z,896.00
2023-03-29T10:45:10.873Z,917.00
2023-03-29T10:46:11.954Z,902.00
2023-03-29T10:47:11.977Z,896.00
2023-03-29T10:48:12.030Z,912.00
2023-03-29T10:49:12.098Z,892.00
2023-03-29T10:50:12.158Z,900.00
2023-03-29T10:51:12.208Z,907.00
2023-03-29T10:52:12.285Z,900.00
2023-03-29T10:53:12.357Z,901.00
2023-03-29T10:54:12.410Z,880.00
2023-03-29T10:55:12.428Z,895.00
2023-03-29T10:56:12.486Z,908.00
2023-03-29T10:57:12.611Z,891.00
2023-03-29T10:58:12.587Z,886.00
2023-03-29T10:59:12.638Z,881.00
2023-03-29T11:00:12.726Z,890.00
2023-03-29T11:01:12.803Z,886.00
2023-03-29T11:02:12.896Z,897.00
2023-03-29T11:03:15.801Z,883.00
2023-03-29T11:06:11.816Z,884.00
2023-03-29T11:07:12.801Z,890.00
2023-03-29T11:08:12.800Z,887.00
2023-03-29T11:09:12.802Z,880.00
2023-03-29T11:10:11.778Z,888.00
2023-03-29T11:11:12.759Z,874.00
2023-03-29T11:12:16.210Z,878.00
2023-03-29T11:14:11.767Z,875.00
2023-03-29T11:15:12.772Z,880.00
2023-03-29T11:17:11.720Z,890.00
2023-03-29T11:18:12.717Z,874.00
2023-03-29T11:19:11.717Z,879.00
2023-03-29T11:20:12.881Z,868.00
2023-03-29T11:24:14.711Z,877.00
2023-03-29T11:25:12.751Z,874.00
2023-03-29T11:30:11.669Z,870.00
2023-03-29T11:31:12.671Z,876.00
2023-03-29T11:32:12.667Z,865.00
2023-03-29T11:33:12.658Z,864.00
2023-03-29T11:35:11.628Z,867.00
2023-03-29T11:36:12.671Z,869.00
2023-03-29T11:37:12.625Z,865.00
2023-03-29T11:40:11.621Z,860.00
2023-03-29T11:41:12.610Z,862.00
2023-03-29T11:42:12.572Z,860.00
2023-03-29T11:43:12.565Z,865.00
2023-03-29T11:44:12.592Z,860.00
2023-03-29T11:46:11.550Z,862.00
2023-03-29T11:47:12.533Z,849.00
2023-03-29T11:48:12.537Z,854.00
2023-03-29T11:49:12.535Z,848.00
2023-03-29T11:50:11.533Z,851.00
2023-03-29T11:51:12.509Z,855.00
2023-03-29T11:55:11.588Z,850.00
2023-03-29T11:56:12.632Z,843.00
2023-03-29T11:57:12.749Z,840.00
2023-03-29T11:58:12.719Z,848.00
2023-03-29T11:59:12.777Z,845.00
2023-03-29T12:00:12.822Z,833.00
2023-03-29T12:01:12.865Z,837.00
2023-03-29T12:03:12.088Z,827.00
2023-03-29T12:04:13.126Z,841.00
2023-03-29T12:05:13.115Z,831.00
2023-03-29T12:06:13.176Z,832.00
2023-03-29T12:07:13.233Z,830.00
2023-03-29T12:08:13.302Z,822.00
2023-03-29T12:09:16.189Z,818.00
2023-03-29T12:10:13.362Z,820.00
2023-03-29T12:15:12.320Z,823.00
2023-03-29T12:16:13.347Z,821.00
2023-03-29T12:17:12.295Z,813.00
2023-03-29T12:18:13.285Z,811.00
2023-03-29T12:21:12.279Z,806.00
2023-03-29T12:22:13.255Z,803.00
2023-03-29T12:23:13.267Z,811.00
2023-03-29T12:28:12.319Z,810.00
2023-03-29T12:29:13.403Z,808.00
2023-03-29T12:30:13.449Z,802.00
2023-03-29T12:31:13.510Z,799.00
2023-03-29T12:32:13.574Z,802.00
2023-03-29T12:33:15.804Z,800.00
2023-03-29T12:37:12.599Z,797.00
2023-03-29T12:38:13.597Z,795.00
2023-03-29T12:42:12.581Z,813.00
2023-03-29T12:43:13.547Z,820.00
2023-03-29T12:44:13.551Z,864.00
2023-03-29T12:46:12.551Z,2488.00
2023-03-29T12:47:13.523Z,2807.00
2023-03-29T12:49:12.508Z,3000.00
2023-03-29T12:50:13.506Z,3173.00
2023-03-29T12:54:12.490Z,3448.00
2023-03-29T12:55:13.478Z,3438.00
2023-03-29T13:00:12.693Z,3348.00
2023-03-29T13:01:13.854Z,3346.00
2023-03-29T13:02:13.955Z,3384.00
2023-03-29T13:03:14.464Z,3404.00
2023-03-29T13:06:13.077Z,3437.00
2023-03-29T13:10:13.094Z,3462.00
2023-03-29T13:11:14.096Z,3468.00
2023-03-29T13:12:13.133Z,3469.00
2023-03-29T13:13:14.076Z,3455.00
2023-03-29T13:14:14.081Z,3490.00
2023-03-29T13:19:13.057Z,3460.00
2023-03-29T13:20:14.024Z,3447.00
2023-03-29T13:22:13.006Z,3491.00
2023-03-29T13:23:16.956Z,3463.00
2023-03-29T13:24:14.034Z,3463.00
2023-03-29T13:29:12.954Z,3444.00
2023-03-29T13:30:13.954Z,3442.00
2023-03-29T13:32:12.929Z,3437.00
2023-03-29T13:33:13.946Z,3407.00
2023-03-29T13:35:12.918Z,3371.00
2023-03-29T13:36:13.945Z,3393.00
2023-03-29T13:37:12.918Z,3368.00
2023-03-29T13:38:12.925Z,3384.00
2023-03-29T13:41:12.984Z,3372.00
2023-03-29T13:42:13.000Z,3369.00
2023-03-29T13:43:14.035Z,3336.00
2023-03-29T13:44:14.076Z,3337.00
2023-03-29T13:45:14.106Z,3310.00
2023-03-29T13:46:14.166Z,3302.00
2023-03-29T13:47:13.182Z,3304.00
2023-03-29T13:48:14.312Z,3386.00
2023-03-29T13:49:14.380Z,3457.00
2023-03-29T13:50:14.369Z,3525.00
2023-03-29T13:51:14.431Z,3544.00
2023-03-29T13:52:14.483Z,3545.00
2023-03-29T13:53:14.541Z,3530.00
2023-03-29T13:54:14.617Z,3497.00
2023-03-29T13:55:14.682Z,3479.00
2023-03-29T13:56:14.729Z,3436.00
2023-03-29T13:57:14.873Z,3418.00
2023-03-29T13:58:14.860Z,3397.00
2023-03-29T13:59:14.922Z,3374.00
2023-03-29T14:00:14.975Z,3352.00
2023-03-29T14:01:14.052Z,3328.00
2023-03-29T14:02:15.092Z,3302.00
2023-03-29T14:04:14.201Z,3259.00
2023-03-29T14:05:15.307Z,3223.00
2023-03-29T14:06:15.321Z,3206.00
2023-03-29T14:07:15.369Z,3191.00
2023-03-29T14:09:14.510Z,3156.00
2023-03-29T14:10:14.535Z,3132.00
2023-03-29T14:11:15.575Z,3120.00
2023-03-29T14:12:15.605Z,3096.00
2023-03-29T14:13:15.649Z,3066.00
2023-03-29T14:14:15.692Z,3050.00
2023-03-29T14:15:15.778Z,3030.00
2023-03-29T14:18:14.927Z,2961.00
2023-03-29T14:19:15.925Z,2928.00
2023-03-29T14:20:15.966Z,2916.00
2023-03-29T14:21:16.039Z,2889.00
2023-03-29T14:24:15.112Z,2839.00
2023-03-29T14:25:15.191Z,2817.00
2023-03-29T14:26:16.248Z,2801.00
2023-03-29T14:28:15.297Z,2777.00
2023-03-29T14:29:16.324Z,2760.00
2023-03-29T14:34:15.456Z,2682.00
2023-03-29T14:35:16.510Z,2665.00
2023-03-29T14:36:16.610Z,2656.00
2023-03-29T14:42:15.719Z,2569.00
2023-03-29T14:43:15.703Z,2551.00
2023-03-29T14:44:16.714Z,2536.00
2023-03-29T14:45:16.760Z,2510.00
2023-03-29T14:46:16.791Z,2515.00
2023-03-29T14:47:16.750Z,2510.00
2023-03-29T14:48:16.800Z,2478.00
2023-03-29T14:49:16.814Z,2455.00
2023-03-29T14:50:16.782Z,2434.00
2023-03-29T14:51:16.754Z,2430.00
2023-03-29T14:52:16.757Z,2423.00
2023-03-29T14:53:16.789Z,2414.00
2023-03-29T14:59:15.774Z,2324.00
2023-03-29T15:00:16.800Z,2309.00
2023-03-29T15:01:16.844Z,2293.00
2023-03-29T15:02:16.813Z,2267.00
2023-03-29T15:04:15.780Z,2247.00
2023-03-29T15:05:15.788Z,2237.00
2023-03-29T15:06:16.784Z,2211.00
2023-03-29T15:09:15.814Z,2185.00
2023-03-29T15:10:16.757Z,2160.00
2023-03-29T15:11:16.776Z,2167.00
2023-03-29T15:12:15.750Z,2139.00
2023-03-29T15:13:16.764Z,2130.00
2023-03-29T15:14:16.808Z,2131.00
2023-03-29T15:17:15.793Z,2045.00
2023-03-29T15:18:16.846Z,2011.00
2023-03-29T15:19:16.802Z,2028.00
2023-03-29T15:20:16.809Z,1993.00
2023-03-29T15:21:18.170Z,1979.00
2023-03-29T15:22:15.788Z,1975.00
2023-03-29T15:23:16.824Z,1973.00
2023-03-29T15:24:16.804Z,1958.00
2023-03-29T15:25:16.838Z,1931.00
2023-03-29T15:27:15.827Z,1895.00
2023-03-29T15:28:16.814Z,1871.00
2023-03-29T15:29:16.839Z,1874.00
